createdAt,value
2022-12-23T00:00:16.345Z,65.68
2022-12-23T00:02:43.606Z,73.25
2022-12-23T00:05:37.353Z,77.70
2022-12-23T00:08:39.638Z,77.30
2022-12-23T00:11:20.515Z,73.30
2022-12-23T00:14:05.939Z,86.10
2022-12-23T00:16:36.157Z,68.65
2022-12-23T00:19:03.151Z,69.10
2022-12-23T00:21:30.349Z,76.35
2022-12-23T00:23:57.205Z,71.65
2022-12-23T00:26:27.525Z,73.95
2022-12-23T00:28:58.763Z,98.90
2022-12-23T00:31:26.148Z,75.15
2022-12-23T00:33:54.402Z,82.57
2022-12-23T00:36:44.665Z,86.82
2022-12-23T00:40:06.793Z,74.00
2022-12-23T00:42:56.040Z,77.05
2022-12-23T00:45:22.886Z,78.30
2022-12-23T00:48:19.684Z,81.85
2022-12-23T00:50:46.787Z,78.45
2022-12-23T00:53:34.742Z,91.45
2022-12-23T00:56:15.352Z,79.25
2022-12-23T00:58:42.421Z,80.38
2022-12-23T01:01:28.332Z,76.78
2022-12-23T01:04:33.683Z,74.72
2022-12-23T01:07:14.439Z,78.07
2022-12-23T01:09:41.371Z,78.20
2022-12-23T01:12:08.539Z,75.50
2022-12-23T01:14:35.679Z,77.05
2022-12-23T01:17:02.832Z,75.05
2022-12-23T01:19:29.875Z,81.88
2022-12-23T01:21:56.892Z,69.45
2022-12-23T01:24:30.629Z,77.18
2022-12-23T01:26:57.672Z,74.97
2022-12-23T01:29:25.470Z,89.18
2022-12-23T01:31:52.515Z,78.32
2022-12-23T01:34:19.990Z,77.13
2022-12-23T01:37:06.727Z,78.93
2022-12-23T01:40:07.761Z,75.30
2022-12-23T01:42:48.296Z,83.55
2022-12-23T01:45:21.569Z,85.40
2022-12-23T01:48:03.153Z,95.53
2022-12-23T01:50:36.361Z,73.15
2022-12-23T01:53:34.820Z,80.50
2022-12-23T01:56:24.026Z,76.65
2022-12-23T01:58:54.736Z,80.03
2022-12-23T02:01:40.853Z,84.35
2022-12-23T02:04:31.695Z,79.97
2022-12-23T02:07:31.679Z,79.57
2022-12-23T02:09:59.461Z,70.15
2022-12-23T02:12:37.242Z,84.38
2022-12-23T02:15:32.403Z,91.18
2022-12-23T02:18:05.539Z,81.70
2022-12-23T02:21:11.314Z,79.40
2022-12-23T02:24:29.742Z,69.60
2022-12-23T02:27:16.384Z,82.15
2022-12-23T02:29:55.614Z,73.45
2022-12-23T02:32:48.637Z,83.20
2022-12-23T02:35:42.494Z,77.03
2022-12-23T02:38:43.719Z,82.93
2022-12-23T02:41:59.814Z,83.18
2022-12-23T02:44:47.585Z,76.20
2022-12-23T02:47:25.025Z,78.10
2022-12-23T02:49:57.074Z,82.47
2022-12-23T02:52:31.778Z,85.00
2022-12-23T02:55:35.883Z,79.32
2022-12-23T02:58:07.890Z,89.82
2022-12-23T03:00:38.661Z,83.97
2022-12-23T03:03:05.806Z,85.60
2022-12-23T03:05:58.789Z,82.28
2022-12-23T03:09:00.765Z,79.22
2022-12-23T03:12:07.775Z,89.35
2022-12-23T03:15:15.795Z,104.38
2022-12-23T03:17:52.755Z,85.72
2022-12-23T03:20:30.869Z,85.07
2022-12-23T03:23:26.038Z,81.85
2022-12-23T03:26:03.774Z,89.60
2022-12-23T03:28:39.570Z,83.43
2022-12-23T03:31:11.447Z,84.40
2022-12-23T03:33:44.481Z,94.05
2022-12-23T03:36:53.816Z,86.85
2022-12-23T03:40:00.762Z,95.47
2022-12-23T03:42:47.957Z,87.05
2022-12-23T03:45:40.826Z,82.75
2022-12-23T03:48:31.910Z,84.45
2022-12-23T03:51:04.389Z,93.60
2022-12-23T03:53:58.841Z,101.32
2022-12-23T03:56:45.674Z,83.82
2022-12-23T03:59:22.030Z,87.50
2022-12-23T04:02:24.071Z,93.35
2022-12-23T04:05:34.812Z,91.10
2022-12-23T04:08:28.952Z,96.28
2022-12-23T04:11:07.432Z,89.15
2022-12-23T04:13:38.812Z,87.20
2022-12-23T04:16:07.996Z,94.75
2022-12-23T04:18:39.850Z,98.80
2022-12-23T04:21:10.279Z,97.22
2022-12-23T04:26:23.659Z,98.22
2022-12-23T04:29:15.784Z,97.20
2022-12-23T04:31:51.678Z,102.55
2022-12-23T04:34:19.233Z,105.93
2022-12-23T04:37:18.956Z,93.68
2022-12-23T04:43:36.603Z,97.83
2022-12-23T04:46:30.996Z,95.28
2022-12-23T04:49:12.016Z,85.57
2022-12-23T04:51:41.085Z,96.43
2022-12-23T04:57:07.288Z,86.72
2022-12-23T04:59:43.517Z,96.13
2022-12-23T05:02:11.921Z,90.50
2022-12-23T05:05:09.830Z,96.47
2022-12-23T05:08:06.177Z,89.05
2022-12-23T05:10:36.090Z,97.22
2022-12-23T05:13:04.730Z,93.20
2022-12-23T05:15:35.490Z,98.70
2022-12-23T05:18:07.680Z,95.40
2022-12-23T05:20:35.276Z,108.50
2022-12-23T05:23:19.422Z,99.47
2022-12-23T05:25:54.065Z,95.63
2022-12-23T05:28:28.214Z,100.90
2022-12-23T05:34:07.557Z,94.45
2022-12-23T05:40:34.056Z,100.78
2022-12-23T05:43:47.267Z,92.45
2022-12-23T05:46:50.411Z,95.07
2022-12-23T05:49:13.344Z,97.88
2022-12-23T05:51:57.799Z,100.05
2022-12-23T05:54:35.243Z,96.75
2022-12-23T05:57:08.396Z,112.47
2022-12-23T05:59:49.363Z,97.28
2022-12-23T06:02:31.528Z,103.75
2022-12-23T06:05:31.824Z,98.10
2022-12-23T06:08:32.211Z,102.40
2022-12-23T06:11:10.120Z,91.32
2022-12-23T06:13:39.863Z,93.93
2022-12-23T06:16:31.220Z,99.95
2022-12-23T06:19:33.810Z,94.15
2022-12-23T06:22:22.992Z,102.35
2022-12-23T06:25:27.231Z,108.07
2022-12-23T06:28:13.462Z,107.00
2022-12-23T06:30:45.733Z,101.75
2022-12-23T06:33:34.486Z,106.18
2022-12-23T06:36:10.071Z,108.18
2022-12-23T06:39:03.912Z,96.13
2022-12-23T06:42:14.161Z,102.57
2022-12-23T06:45:16.783Z,94.18
2022-12-23T06:47:52.699Z,100.72
2022-12-23T06:50:50.726Z,98.35
2022-12-23T06:54:02.598Z,103.57
2022-12-23T06:56:48.525Z,95.10
2022-12-23T06:59:17.696Z,109.07
2022-12-23T07:02:20.510Z,109.03
2022-12-23T07:05:25.064Z,97.57
2022-12-23T07:10:44.885Z,101.10
2022-12-23T07:13:16.045Z,102.07
2022-12-23T07:15:46.917Z,102.72
2022-12-23T07:18:23.825Z,106.35
2022-12-23T07:20:54.138Z,102.55
2022-12-23T07:23:25.734Z,99.28
2022-12-23T07:28:45.173Z,90.75
2022-12-23T07:31:24.103Z,103.47
2022-12-23T07:34:45.812Z,85.43
2022-12-23T07:37:51.381Z,88.85
2022-12-23T07:40:47.988Z,103.57
2022-12-23T07:43:22.009Z,82.20
2022-12-23T07:50:03.506Z,102.68
2022-12-23T07:52:31.354Z,95.03
2022-12-23T07:55:01.319Z,82.28
2022-12-23T07:57:49.314Z,91.93
2022-12-23T08:04:31.483Z,94.18
2022-12-23T08:07:35.869Z,88.25
2022-12-23T08:10:48.034Z,115.70
2022-12-23T08:14:14.266Z,98.90
2022-12-23T08:17:06.589Z,97.72
2022-12-23T08:19:35.459Z,102.97
2022-12-23T08:22:30.606Z,110.07
2022-12-23T08:28:28.653Z,105.88
2022-12-23T08:31:52.583Z,95.50
2022-12-23T08:34:43.235Z,94.47
2022-12-23T08:37:21.384Z,91.47
2022-12-23T08:40:02.832Z,89.22
2022-12-23T08:42:37.329Z,83.40
2022-12-23T08:45:19.202Z,93.63
2022-12-23T08:48:09.322Z,85.75
2022-12-23T08:50:53.909Z,100.53
2022-12-23T08:53:46.055Z,88.25
2022-12-23T08:56:28.251Z,89.43
2022-12-23T08:59:19.531Z,82.28
2022-12-23T09:01:55.654Z,85.88
2022-12-23T09:04:46.953Z,89.97
2022-12-23T09:08:10.280Z,81.40
2022-12-23T09:11:03.784Z,78.93
2022-12-23T09:14:26.727Z,78.93
2022-12-23T09:18:22.618Z,75.88
2022-12-23T09:21:33.901Z,100.70
2022-12-23T09:24:42.645Z,92.68
2022-12-23T09:27:49.991Z,86.32
2022-12-23T10:28:06.949Z,96.03
2022-12-23T10:31:39.331Z,91.60
2022-12-23T10:33:38.486Z,89.63
2022-12-23T10:38:38.533Z,101.95
2022-12-23T10:41:57.321Z,101.80
2022-12-23T10:49:14.703Z,108.00
2022-12-23T10:58:11.527Z,108.70
2022-12-23T11:01:26.797Z,100.38
2022-12-23T11:04:53.554Z,116.70
2022-12-23T11:08:05.887Z,97.43
2022-12-23T11:11:24.742Z,115.50
2022-12-23T11:18:47.315Z,103.30
2022-12-23T11:21:49.165Z,106.53
2022-12-23T11:24:57.049Z,112.57
2022-12-23T11:31:27.583Z,110.15
2022-12-23T11:34:52.451Z,116.93
2022-12-23T12:00:33.107Z,92.32
2022-12-23T12:03:20.797Z,98.13
2022-12-23T12:06:17.046Z,96.60
2022-12-23T12:09:00.243Z,97.15
2022-12-23T12:11:39.830Z,101.25
2022-12-23T12:14:11.150Z,94.88
2022-12-23T12:16:47.815Z,104.78
2022-12-23T12:19:26.215Z,103.15
2022-12-23T12:21:58.280Z,104.88
2022-12-23T12:24:48.731Z,100.88
2022-12-23T12:27:49.055Z,96.35
2022-12-23T12:30:40.213Z,92.18
2022-12-23T12:34:04.100Z,105.07
2022-12-23T12:36:59.830Z,84.28
2022-12-23T12:39:42.080Z,103.30
2022-12-23T12:42:14.675Z,94.78
2022-12-23T12:45:16.038Z,94.13
2022-12-23T12:48:46.086Z,103.60
2022-12-23T12:51:56.059Z,83.93
2022-12-23T12:54:50.965Z,92.70
2022-12-23T12:57:39.090Z,93.07
2022-12-23T13:00:22.465Z,95.75
2022-12-23T13:03:01.610Z,95.85
2022-12-23T13:05:55.077Z,95.90
2022-12-23T13:08:48.592Z,93.03
2022-12-23T13:11:45.282Z,96.10
2022-12-23T13:14:15.777Z,97.47
2022-12-23T13:17:03.209Z,107.55
2022-12-23T13:20:17.333Z,89.03
2022-12-23T13:22:47.484Z,99.10
2022-12-23T13:25:46.067Z,105.13
2022-12-23T13:29:16.164Z,101.88
2022-12-23T13:32:29.353Z,94.75
2022-12-23T13:35:15.453Z,96.38
2022-12-23T13:38:18.972Z,95.72
2022-12-23T13:41:07.202Z,98.60
2022-12-23T13:43:48.390Z,112.05
2022-12-23T13:46:38.165Z,95.68
2022-12-23T13:49:48.111Z,99.75
2022-12-23T13:53:04.116Z,100.43
2022-12-23T13:55:50.751Z,102.85
2022-12-23T13:58:22.159Z,117.55
2022-12-23T14:01:32.199Z,93.88
2022-12-23T14:04:42.128Z,98.50
2022-12-23T14:07:39.200Z,96.07
2022-12-23T14:10:12.979Z,89.75
2022-12-23T14:15:24.789Z,87.65
2022-12-23T14:18:25.534Z,88.82
2022-12-23T14:21:34.489Z,90.15
2022-12-23T14:24:20.317Z,91.78
2022-12-23T14:27:38.108Z,85.63
2022-12-23T14:30:45.898Z,84.85
2022-12-23T14:33:40.158Z,89.70
2022-12-23T14:36:26.929Z,82.55
2022-12-23T14:39:17.291Z,86.10
2022-12-23T14:41:58.749Z,84.22
2022-12-23T14:44:50.145Z,85.13
2022-12-23T14:47:53.123Z,86.03
2022-12-23T14:50:56.287Z,80.97
2022-12-23T14:53:38.161Z,96.90
2022-12-23T14:56:08.477Z,95.93
2022-12-23T14:58:55.184Z,95.63
2022-12-23T15:02:28.230Z,84.82
2022-12-23T15:05:36.198Z,94.55
2022-12-23T15:08:45.145Z,92.15
2022-12-23T15:11:48.149Z,86.47
2022-12-23T15:14:34.689Z,93.35
2022-12-23T15:17:35.904Z,89.68
2022-12-23T15:20:19.383Z,87.88
2022-12-23T15:22:48.183Z,82.78
2022-12-23T15:25:40.239Z,90.28
2022-12-23T15:28:23.990Z,102.00
2022-12-23T15:31:11.199Z,98.93
2022-12-23T15:34:02.954Z,100.63
2022-12-23T15:36:35.695Z,108.35
2022-12-23T15:39:10.305Z,106.32
2022-12-23T15:41:47.974Z,112.38
2022-12-23T15:44:38.289Z,111.85
2022-12-23T15:47:49.178Z,103.18
2022-12-23T15:50:31.061Z,105.20
2022-12-23T15:53:05.911Z,120.20
2022-12-23T15:55:34.952Z,117.45
2022-12-23T15:58:22.211Z,100.55
2022-12-23T16:01:29.929Z,120.72
2022-12-23T16:04:39.253Z,108.70
2022-12-23T16:07:46.198Z,116.43
2022-12-23T16:10:26.885Z,116.65
2022-12-23T16:12:54.448Z,98.32
2022-12-23T16:15:46.261Z,118.55
2022-12-23T16:18:34.495Z,114.85
2022-12-23T16:21:03.697Z,110.95
2022-12-23T16:23:37.460Z,108.93
2022-12-23T16:26:04.846Z,120.22
2022-12-23T16:28:44.643Z,130.45
2022-12-23T16:31:16.661Z,127.82
2022-12-23T16:33:49.345Z,133.00
2022-12-23T16:36:25.875Z,123.63
2022-12-23T16:39:00.329Z,124.80
2022-12-23T16:41:27.665Z,140.25
2022-12-23T16:43:55.069Z,129.65
2022-12-23T16:46:48.248Z,126.65
2022-12-23T16:49:33.853Z,110.97
2022-12-23T16:52:02.586Z,133.98
2022-12-23T16:54:30.153Z,124.30
2022-12-23T16:56:57.385Z,143.68
2022-12-23T16:59:47.249Z,134.50
2022-12-23T17:02:48.409Z,128.93
2022-12-23T17:05:42.696Z,127.00
2022-12-23T17:08:43.203Z,132.65
2022-12-23T17:11:45.386Z,130.63
2022-12-23T17:14:42.572Z,128.38
2022-12-23T17:17:16.168Z,119.75
2022-12-23T17:19:43.541Z,129.93
2022-12-23T17:22:13.358Z,126.65
2022-12-23T17:25:00.363Z,128.85
2022-12-23T17:27:41.438Z,121.32
2022-12-23T17:30:16.371Z,137.32
2022-12-23T17:32:51.184Z,113.68
2022-12-23T17:35:20.050Z,121.53
2022-12-23T17:37:47.378Z,124.07
2022-12-23T17:40:16.886Z,133.43
2022-12-23T17:42:44.669Z,125.95
2022-12-23T17:45:39.344Z,130.20
2022-12-23T17:48:40.353Z,123.60
2022-12-23T17:51:34.638Z,119.13
2022-12-23T17:54:02.453Z,123.90
2022-12-23T17:56:30.973Z,121.05
2022-12-23T17:58:59.351Z,132.13
2022-12-23T18:01:46.383Z,127.40
2022-12-23T18:04:47.276Z,120.85
2022-12-23T18:07:38.924Z,123.55
2022-12-23T18:10:06.417Z,118.18
2022-12-23T18:12:39.100Z,122.15
2022-12-23T18:15:07.736Z,117.53
2022-12-23T18:17:34.962Z,121.93
2022-12-23T18:20:04.059Z,114.82
2022-12-23T18:22:31.424Z,116.05
2022-12-23T18:24:59.608Z,124.03
2022-12-23T18:27:49.401Z,119.20
2022-12-23T18:30:50.349Z,115.43
2022-12-23T18:33:31.314Z,111.90
2022-12-23T18:35:58.705Z,126.85
2022-12-23T18:38:26.003Z,111.40
2022-12-23T18:40:54.963Z,122.53
2022-12-23T18:43:24.515Z,112.47
2022-12-23T18:46:11.404Z,121.25
2022-12-23T18:49:03.725Z,107.28
2022-12-23T18:51:31.102Z,114.68
2022-12-23T18:53:59.911Z,100.82
2022-12-23T18:56:30.316Z,116.95
2022-12-23T18:58:57.495Z,124.03
2022-12-23T19:01:25.398Z,120.10
2022-12-23T19:04:12.404Z,126.50
2022-12-23T19:07:13.303Z,126.72
2022-12-23T19:09:53.991Z,119.07
2022-12-23T19:12:21.002Z,116.60
2022-12-23T19:14:48.207Z,118.63
2022-12-23T19:17:50.342Z,112.07
2022-12-23T19:20:31.774Z,117.10
2022-12-23T19:22:59.022Z,116.53
2022-12-23T19:25:54.524Z,118.28
2022-12-23T19:28:37.248Z,116.63
2022-12-23T19:31:16.124Z,129.05
2022-12-23T19:33:46.180Z,115.60
2022-12-23T19:36:22.858Z,123.57
2022-12-23T19:38:50.785Z,127.70
2022-12-23T19:41:18.840Z,127.60
2022-12-23T19:43:47.396Z,123.45
2022-12-23T19:46:34.534Z,126.95
2022-12-23T19:49:35.714Z,117.10
2022-12-23T19:52:16.021Z,123.03
2022-12-23T19:54:43.173Z,113.10
2022-12-23T19:57:10.911Z,122.47
2022-12-23T19:59:38.079Z,130.35
2022-12-23T20:02:30.389Z,136.77
2022-12-23T20:05:31.363Z,124.72
2022-12-23T20:08:32.636Z,135.98
2022-12-23T20:11:39.371Z,121.50
2022-12-23T20:14:21.895Z,121.45
2022-12-23T20:16:49.546Z,123.90
2022-12-23T20:19:17.455Z,131.25
2022-12-23T20:21:47.828Z,138.68
2022-12-23T20:24:15.937Z,144.93
2022-12-23T20:26:56.685Z,146.30
2022-12-23T20:29:37.094Z,123.40
2022-12-23T20:32:24.409Z,141.10
2022-12-23T20:35:05.669Z,118.85
2022-12-23T20:37:52.501Z,128.27
2022-12-23T20:40:53.403Z,125.35
2022-12-23T20:44:23.899Z,115.35
2022-12-23T20:47:08.393Z,119.25
2022-12-23T20:50:09.389Z,134.40
2022-12-23T20:52:41.180Z,136.57
2022-12-23T20:55:08.656Z,133.93
2022-12-23T20:57:36.150Z,123.10
2022-12-23T21:00:07.249Z,123.30
2022-12-23T21:02:34.493Z,135.27
2022-12-23T21:05:14.508Z,127.65
2022-12-23T21:08:08.446Z,133.27
2022-12-23T21:11:09.368Z,128.27
2022-12-23T21:13:50.970Z,150.73
2022-12-23T21:16:18.656Z,128.23
2022-12-23T21:18:50.632Z,127.75
2022-12-23T21:21:17.768Z,137.43
2022-12-23T21:24:06.412Z,131.75
2022-12-23T21:26:55.435Z,130.93
2022-12-23T21:30:11.309Z,127.30
2022-12-23T21:33:52.590Z,119.93
2022-12-23T21:36:36.811Z,121.43
2022-12-23T21:39:19.422Z,124.63
2022-12-23T21:42:20.371Z,127.82
2022-12-23T21:45:21.350Z,118.60
2022-12-23T21:48:22.373Z,121.25
2022-12-23T21:51:15.079Z,145.13
2022-12-23T21:53:43.916Z,134.13
2022-12-23T21:56:16.206Z,130.05
2022-12-23T21:58:43.775Z,138.88
2022-12-23T22:01:19.006Z,126.32
2022-12-23T22:04:07.367Z,126.80
2022-12-23T22:07:08.433Z,147.65
2022-12-23T22:10:09.367Z,131.95
2022-12-23T22:13:10.432Z,131.73
2022-12-23T22:16:01.368Z,120.50
2022-12-23T22:18:42.730Z,125.43
2022-12-23T22:21:40.369Z,117.00
2022-12-23T22:24:21.170Z,123.47
2022-12-23T22:26:52.299Z,117.13
2022-12-23T22:29:20.610Z,118.47
2022-12-23T22:31:53.312Z,140.50
2022-12-23T22:34:24.937Z,119.55
2022-12-23T22:36:55.078Z,124.97
2022-12-23T22:39:42.558Z,129.65
2022-12-23T22:42:47.465Z,130.68
2022-12-23T22:45:29.092Z,129.13
2022-12-23T22:48:16.410Z,126.40
2022-12-23T22:51:32.289Z,130.07
2022-12-23T22:54:06.915Z,116.50
2022-12-23T22:56:39.480Z,143.00
2022-12-23T22:59:10.205Z,144.82
2022-12-23T23:01:57.472Z,133.15
2022-12-23T23:04:58.503Z,138.13
2022-12-23T23:07:39.316Z,131.85
2022-12-23T23:10:07.426Z,136.23
2022-12-23T23:12:34.567Z,122.97
2022-12-23T23:15:01.899Z,121.65
2022-12-23T23:17:29.585Z,116.57
2022-12-23T23:20:16.448Z,120.38
2022-12-23T23:23:17.526Z,118.65
2022-12-23T23:26:00.513Z,128.15
2022-12-23T23:28:47.435Z,125.40
2022-12-23T23:31:44.362Z,116.53
2022-12-23T23:34:13.027Z,117.28
2022-12-23T23:36:40.791Z,123.85
2022-12-23T23:39:28.482Z,136.95
2022-12-23T23:42:29.526Z,143.55
2022-12-23T23:45:30.516Z,129.88
2022-12-23T23:48:31.430Z,138.95
2022-12-23T23:51:12.976Z,149.52
2022-12-23T23:53:40.670Z,139.88
2022-12-23T23:56:09.017Z,149.13
2022-12-23T23:58:37.295Z,141.48
